Maxwell AFB, Alabama
Current Conditions -  °F | °C
As of 8:58 AM on Friday 31 Oct 2014 (Local Time) from KMXF Reporting Station
Clear Clear  
Wind Chill: 50°   Ceiling: Unl
Heat Index: 50°   Visibility: 10mi
Dew Point: 43°   Wind: 1mph
Humidity: 76%   Direction: NA
Pressure: 30"   Gusts: NA
Location:  32.3797°N, 86.3233°W
Report Text: KMXF 311358Z VRB01KT 10SM CLR 10/06 A3000 RMK AO2A SLP162 $
Loading
Personal Weather Stations






























Interactive Weather Map
Tropical Storm Tracking
New forecast layout! Learn more

10-Day Weather Forecast

Advertisements
Track Severe Weather on mobile